Time;durP1;ratioP1;P1;durP2;ratioP2;P2;SDS_P1;SDS_P2;PMS_P1;PMS_P2;Temp;Humidity;BMP_temperature;BMP_pressure;BME280_temperature;BME280_humidity;BME280_pressure;Samples;Min_cycle;Max_cycle;Signal;HPM_P1;HPM_P2
2021/09/07 18:39:14;;;;;;;16.80;7.22;;;;;;;19.70;44.01;101560.25;5037836;28;20642;-75
2021/09/07 18:41:39;;;;;;;23.58;8.57;;;;;;;19.76;43.80;101557.44;5034903;28;20394;-75
2021/09/07 18:48:15;;;;;;;24.77;10.13;;;;;;;20.37;42.95;101581.94;4970523;28;21155;-76
2021/09/07 18:50:41;;;;;;;21.80;9.77;;;;;;;20.83;43.08;101580.91;4917786;29;20051;-68
2021/09/07 18:53:07;;;;;;;19.75;7.93;;;;;;;21.17;41.55;101589.00;4929878;29;20446;-74
2021/09/07 18:55:33;;;;;;;12.85;7.40;;;;;;;21.27;40.80;101560.25;4906157;28;20565;-73
2021/09/07 18:58:03;;;;;;;18.38;9.30;;;;;;;21.61;40.49;101600.34;4900410;29;20043;-75
2021/09/07 19:00:28;;;;;;;15.77;7.88;;;;;;;22.05;39.69;101597.34;4900636;29;20032;-74
2021/09/07 19:02:54;;;;;;;11.57;7.95;;;;;;;22.39;39.19;101583.03;4899141;29;20123;-74
2021/09/07 19:05:19;;;;;;;30.15;8.10;;;;;;;22.40;38.79;101568.72;4901024;29;20727;-75
2021/09/07 19:07:45;;;;;;;12.73;7.65;;;;;;;22.10;38.71;101582.03;4903221;29;20060;-74
2021/09/07 19:10:10;;;;;;;14.45;5.50;;;;;;;22.13;39.23;101600.69;4900059;29;20040;-75
2021/09/07 19:12:37;;;;;;;9.93;6.32;;;;;;;21.23;40.09;101511.41;4897938;29;21455;-73
2021/09/07 19:15:02;;;;;;;15.98;6.55;;;;;;;21.84;39.91;101606.84;4893813;29;20032;-73
2021/09/07 19:17:29;;;;;;;18.65;6.65;;;;;;;21.70;39.78;101584.06;4902631;29;20101;-74
2021/09/07 19:19:54;;;;;;;21.75;6.43;;;;;;;21.57;39.85;101573.75;4898657;29;20092;-73
2021/09/07 19:22:20;;;;;;;9.73;6.20;;;;;;;22.03;39.63;101623.22;4936327;28;20065;-71
2021/09/07 19:24:46;;;;;;;11.25;6.28;;;;;;;21.91;40.13;101611.09;4897846;29;20028;-71
2021/09/07 19:27:12;;;;;;;12.70;5.97;;;;;;;21.42;40.35;101620.41;4894366;29;20140;-72
2021/09/07 19:29:37;;;;;;;9.68;6.40;;;;;;;21.19;41.11;101587.16;4914328;29;20052;-74
2021/09/07 19:32:03;;;;;;;12.75;6.13;;;;;;;21.69;40.35;101609.00;4900394;29;20047;-71
2021/09/07 19:34:28;;;;;;;10.20;5.57;;;;;;;21.74;39.90;101608.88;4914458;29;20036;-75
2021/09/07 19:36:57;;;;;;;9.88;5.18;;;;;;;21.80;40.23;101619.41;4901190;29;20036;-74
2021/09/07 19:39:23;;;;;;;9.95;5.18;;;;;;;21.60;40.53;101595.91;4893861;29;20140;-72
2021/09/07 19:41:52;;;;;;;10.05;5.90;;;;;;;21.74;40.46;101626.72;4904798;29;21078;-72
2021/09/07 19:44:22;;;;;;;9.10;5.43;;;;;;;21.42;40.83;101599.06;4900040;29;20059;-72
2021/09/07 19:46:49;;;;;;;12.73;6.25;;;;;;;21.15;41.01;101604.16;4904847;29;20134;-72
2021/09/07 19:49:15;;;;;;;9.70;5.25;;;;;;;21.25;41.43;101603.00;4921466;29;20100;-72
2021/09/07 19:51:41;;;;;;;12.05;5.65;;;;;;;21.21;41.36;101597.78;4920468;29;20157;-75
2021/09/07 19:54:06;;;;;;;16.55;6.15;;;;;;;21.36;41.59;101624.09;4920914;29;20536;-73
2021/09/07 19:56:32;;;;;;;11.75;5.22;;;;;;;20.51;42.78;101603.88;4917775;29;20074;-72
2021/09/07 19:58:58;;;;;;;19.63;5.70;;;;;;;21.04;41.98;101625.75;4922314;28;20120;-72
2021/09/07 20:01:24;;;;;;;10.43;4.88;;;;;;;21.12;41.84;101606.91;4909662;29;20143;-72
2021/09/07 20:03:50;;;;;;;8.30;5.68;;;;;;;21.11;42.04;101628.31;4906585;29;20393;-72
2021/09/07 20:06:15;;;;;;;8.20;5.22;;;;;;;21.12;42.17;101632.72;4921797;29;20051;-71
2021/09/07 20:08:42;;;;;;;10.60;5.10;;;;;;;21.13;41.79;101619.34;4907378;29;20051;-72
2021/09/07 20:11:09;;;;;;;13.43;5.38;;;;;;;20.96;42.54;101643.78;4937454;28;20047;-70
2021/09/07 20:13:34;;;;;;;19.63;5.35;;;;;;;21.18;42.23;101640.59;4904483;29;20036;-73
2021/09/07 20:16:00;;;;;;;14.15;5.72;;;;;;;21.15;42.40;101636.19;4907727;29;20035;-72
2021/09/07 20:18:25;;;;;;;21.90;5.28;;;;;;;20.98;42.44;101647.28;4904906;29;20024;-71
2021/09/07 20:20:50;;;;;;;10.05;5.95;;;;;;;20.82;42.62;101643.22;4900201;29;20051;-72
2021/09/07 20:23:16;;;;;;;10.90;6.03;;;;;;;20.48;43.83;101641.25;4910074;29;20496;-72
2021/09/07 20:25:41;;;;;;;9.95;5.50;;;;;;;20.32;43.71;101623.81;4906832;29;20043;-73
2021/09/07 20:28:07;;;;;;;9.43;5.45;;;;;;;20.13;44.32;101632.19;4909436;29;20043;-75
2021/09/07 20:30:32;;;;;;;7.75;5.50;;;;;;;20.49;43.93;101629.69;4907943;29;20040;-76
2021/09/07 20:32:58;;;;;;;9.00;5.07;;;;;;;20.48;43.67;101622.56;4907249;29;20062;-70
2021/09/07 20:35:24;;;;;;;11.10;5.20;;;;;;;20.79;43.35;101649.50;4902193;29;20072;-68
2021/09/07 20:37:49;;;;;;;6.03;4.05;;;;;;;20.74;43.67;101642.50;4911600;29;20036;-69
2021/09/07 20:40:15;;;;;;;13.50;5.45;;;;;;;20.56;43.90;101633.13;4901439;29;20035;-69
2021/09/07 20:42:41;;;;;;;7.90;5.63;;;;;;;20.76;43.29;101622.88;4904170;29;20032;-70
2021/09/07 20:45:12;;;;;;;10.43;4.88;;;;;;;20.87;42.83;101607.50;4903230;29;20498;-71
2021/09/07 20:47:38;;;;;;;15.18;6.05;;;;;;;21.29;42.40;101649.22;4908495;29;20062;-70
2021/09/07 20:50:04;;;;;;;8.52;5.30;;;;;;;21.31;42.31;101651.84;4902279;29;20068;-71
2021/09/07 20:52:30;;;;;;;9.68;4.32;;;;;;;21.23;42.56;101652.88;4909311;29;20707;-72
2021/09/07 20:54:55;;;;;;;13.90;5.45;;;;;;;21.00;42.96;101632.13;4904267;29;20042;-74
2021/09/07 20:57:22;;;;;;;15.55;5.57;;;;;;;20.62;44.31;101641.84;4905250;29;20044;-72
2021/09/07 20:59:47;;;;;;;10.05;5.45;;;;;;;20.87;43.77;101660.00;4916389;29;20161;-73
2021/09/07 21:02:13;;;;;;;7.22;5.38;;;;;;;20.84;43.23;101644.06;4901847;29;20107;-72
2021/09/07 21:04:38;;;;;;;6.80;5.10;;;;;;;21.14;43.29;101665.59;4918165;29;20811;-71
2021/09/07 21:07:04;;;;;;;11.23;4.90;;;;;;;21.34;42.58;101663.31;4908370;29;20043;-72
2021/09/07 21:09:29;;;;;;;7.07;5.07;;;;;;;21.29;42.97;101657.22;4933014;28;20035;-70
2021/09/07 21:11:55;;;;;;;7.38;5.00;;;;;;;21.30;42.59;101640.28;4900341;29;20032;-72
2021/09/07 21:14:20;;;;;;;28.65;4.65;;;;;;;21.38;42.67;101659.66;4903223;29;20028;-71
2021/09/07 21:16:45;;;;;;;15.90;4.85;;;;;;;21.15;42.68;101641.53;4914467;29;20548;-74
2021/09/07 21:19:11;;;;;;;14.05;4.78;;;;;;;21.25;43.00;101668.88;4907509;29;20035;-71
2021/09/07 21:21:36;;;;;;;7.13;4.85;;;;;;;21.20;42.59;101662.78;4907816;29;20032;-71
2021/09/07 21:24:02;;;;;;;7.53;5.10;;;;;;;21.05;42.87;101654.22;4910009;29;20028;-70
2021/09/07 21:26:27;;;;;;;8.55;5.15;;;;;;;21.04;43.04;101663.13;4906449;29;20512;-71
2021/09/07 21:28:53;;;;;;;12.18;5.75;;;;;;;20.86;43.46;101653.78;4906085;29;20028;-72
2021/09/07 21:31:20;;;;;;;7.43;4.60;;;;;;;20.83;43.63;101675.19;4913120;29;20036;-70
2021/09/07 21:33:46;;;;;;;8.38;4.65;;;;;;;20.10;45.39;101674.03;4940835;29;20043;-71
2021/09/07 21:36:12;;;;;;;14.45;5.35;;;;;;;20.43;44.78;101676.00;4910088;29;20039;-72
2021/09/07 21:38:37;;;;;;;12.10;5.28;;;;;;;20.42;44.93;101668.06;4905948;29;20088;-72
2021/09/07 21:41:03;;;;;;;10.40;4.88;;;;;;;20.31;45.05;101646.06;4900123;29;20083;-71
2021/09/07 21:43:29;;;;;;;14.27;5.53;;;;;;;20.42;44.91;101673.38;4906106;29;20036;-73
2021/09/07 21:45:54;;;;;;;13.35;5.10;;;;;;;20.45;45.06;101681.31;4912089;29;20044;-73
2021/09/07 21:48:19;;;;;;;8.23;4.93;;;;;;;20.35;44.87;101685.09;4903078;29;20048;-72
2021/09/07 21:50:45;;;;;;;8.27;4.53;;;;;;;20.35;44.91;101685.09;4912229;29;20119;-73
2021/09/07 21:53:11;;;;;;;9.13;6.05;;;;;;;20.35;44.86;101688.63;4908883;29;20566;-72
2021/09/07 21:55:36;;;;;;;14.85;6.00;;;;;;;20.23;45.15;101665.75;4908080;29;20059;-71
2021/09/07 21:58:01;;;;;;;15.55;5.38;;;;;;;20.13;45.08;101655.31;4904663;29;20043;-71
2021/09/07 22:00:27;;;;;;;11.65;5.22;;;;;;;20.27;45.21;101679.00;4910830;29;20036;-71
2021/09/07 22:02:53;;;;;;;11.85;5.47;;;;;;;20.17;45.42;101678.31;4910538;29;20405;-70
2021/09/07 22:05:18;;;;;;;10.98;5.13;;;;;;;20.23;45.28;101680.88;4906668;29;20501;-68
2021/09/07 22:07:44;;;;;;;6.47;4.75;;;;;;;20.17;45.62;101681.88;4910621;29;20498;-72
2021/09/07 22:10:10;;;;;;;10.20;5.50;;;;;;;20.02;46.17;101660.84;4893495;29;20028;-81
2021/09/07 22:12:36;;;;;;;6.97;4.50;;;;;;;19.80;46.05;101663.91;4904980;29;20426;-79
2021/09/07 22:15:02;;;;;;;9.32;4.13;;;;;;;19.85;46.54;101660.28;4902126;29;20040;-79
2021/09/07 22:17:27;;;;;;;15.68;5.38;;;;;;;19.96;46.23;101692.94;4909642;29;20432;-78
2021/09/07 22:19:53;;;;;;;11.05;4.65;;;;;;;19.87;46.31;101666.47;4908919;29;20122;-79
2021/09/07 22:22:19;;;;;;;12.30;5.47;;;;;;;20.03;46.22;101694.56;4909683;29;20115;-77
2021/09/07 22:24:44;;;;;;;7.22;4.82;;;;;;;20.09;46.12;101682.91;4901738;29;20047;-77
2021/09/07 22:27:10;;;;;;;8.60;5.47;;;;;;;20.14;45.61;101663.28;4918800;29;20038;-74
2021/09/07 22:29:35;;;;;;;10.68;4.38;;;;;;;20.41;45.27;101688.47;4904205;29;20092;-73
2021/09/07 22:32:01;;;;;;;9.07;5.25;;;;;;;20.50;45.88;101692.75;4904857;29;20040;-72
2021/09/07 22:34:27;;;;;;;7.95;4.82;;;;;;;20.35;46.20;101674.44;4909007;29;20036;-74
2021/09/07 22:36:53;;;;;;;10.55;4.65;;;;;;;20.49;45.26;101692.81;4936958;29;20035;-73
2021/09/07 22:39:19;;;;;;;9.95;4.53;;;;;;;20.49;45.22;101688.34;4907818;29;20413;-72
2021/09/07 22:41:46;;;;;;;6.00;4.05;;;;;;;20.68;44.95;101685.34;4921985;29;20043;-72
2021/09/07 22:44:12;;;;;;;5.20;3.50;;;;;;;20.34;45.31;101664.66;4908765;29;20127;-72
2021/09/07 22:46:38;;;;;;;7.53;4.18;;;;;;;20.24;46.55;101699.50;4901107;29;20099;-72
2021/09/07 22:49:04;;;;;;;7.43;4.00;;;;;;;20.18;46.53;101693.41;4906554;29;20059;-73
2021/09/07 22:51:29;;;;;;;6.35;4.65;;;;;;;20.04;46.28;101667.00;4906295;29;20036;-74
2021/09/07 22:53:55;;;;;;;6.47;4.00;;;;;;;19.90;46.93;101693.94;4901981;29;20611;-73
2021/09/07 22:56:21;;;;;;;9.32;4.57;;;;;;;19.08;49.10;101696.13;4900080;29;20104;-74
2021/09/07 22:58:46;;;;;;;7.72;3.65;;;;;;;18.61;51.18;101689.63;4906295;29;20036;-73
2021/09/07 23:01:11;;;;;;;8.40;5.32;;;;;;;17.68;53.82;101698.56;4898436;29;20032;-73
2021/09/07 23:03:37;;;;;;;6.28;4.28;;;;;;;17.14;55.00;101671.59;4908634;29;20623;-73
2021/09/07 23:06:02;;;;;;;8.30;5.22;;;;;;;16.45;56.68;101672.78;4904253;29;20036;-73
2021/09/07 23:08:28;;;;;;;8.80;4.82;;;;;;;16.56;56.32;101662.16;4898851;29;20088;-73
2021/09/07 23:10:54;;;;;;;7.82;4.75;;;;;;;16.45;57.08;101695.75;4901083;29;20054;-73
2021/09/07 23:13:20;;;;;;;7.28;4.63;;;;;;;15.95;57.94;101689.72;4909216;29;20033;-73
2021/09/07 23:15:45;;;;;;;14.00;4.93;;;;;;;15.58;58.88;101668.53;4904484;29;20037;-72
2021/09/07 23:18:11;;;;;;;9.95;3.97;;;;;;;15.42;59.32;101669.44;4903689;29;20070;-72
2021/09/07 23:20:36;;;;;;;8.10;3.90;;;;;;;15.68;59.08;101701.16;4909063;29;20489;-72
2021/09/07 23:23:02;;;;;;;12.15;4.40;;;;;;;15.56;59.67;101704.69;4909463;29;20110;-72
2021/09/07 23:25:28;;;;;;;6.88;3.78;;;;;;;15.55;59.62;101695.00;4905797;29;20037;-73
2021/09/07 23:27:54;;;;;;;13.93;4.70;;;;;;;15.32;59.83;101681.78;4903240;29;20067;-72
2021/09/07 23:30:20;;;;;;;10.70;4.70;;;;;;;15.25;60.29;101690.59;4943366;29;20138;-73
2021/09/07 23:32:45;;;;;;;10.50;4.20;;;;;;;15.41;60.05;101694.13;4896508;29;20857;-74
2021/09/07 23:35:11;;;;;;;14.40;5.30;;;;;;;15.14;60.09;101682.63;4909163;29;20044;-73
2021/09/07 23:37:36;;;;;;;10.95;4.28;;;;;;;15.12;60.18;101654.41;4913144;29;20048;-75
2021/09/07 23:40:03;;;;;;;11.75;3.83;;;;;;;15.30;59.96;101682.66;4911857;29;20040;-74
2021/09/07 23:42:29;;;;;;;12.25;3.88;;;;;;;15.06;60.57;101688.78;4910145;29;20032;-75
2021/09/07 23:44:54;;;;;;;8.35;4.28;;;;;;;14.80;60.71;101663.19;4907812;29;20410;-74
2021/09/07 23:47:20;;;;;;;7.93;3.92;;;;;;;14.71;61.04;101664.03;4906736;29;20056;-74
2021/09/07 23:49:46;;;;;;;22.90;4.93;;;;;;;15.11;60.48;101700.25;4901520;29;20470;-74
2021/09/07 23:52:12;;;;;;;10.13;3.95;;;;;;;15.19;60.12;101685.28;4911651;29;20520;-73
2021/09/07 23:54:37;;;;;;;9.95;4.47;;;;;;;14.95;60.51;101684.34;4925822;29;20036;-72
2021/09/07 23:57:03;;;;;;;11.70;4.70;;;;;;;14.86;60.75;101676.41;4909493;29;20063;-74
2021/09/07 23:59:28;;;;;;;16.58;4.90;;;;;;;14.52;61.09;101662.19;4909847;29;20060;-74
